createdAt,value
2023-03-31T00:00:53.472Z,8.93
2023-03-31T00:03:24.058Z,6.15
2023-03-31T00:06:01.077Z,5.50
2023-03-31T00:08:35.752Z,7.55
2023-03-31T00:11:07.767Z,4.45
2023-03-31T00:13:36.656Z,5.72
2023-03-31T00:16:10.691Z,5.63
2023-03-31T00:18:37.998Z,5.75
2023-03-31T00:21:14.420Z,6.15
2023-03-31T00:23:42.290Z,6.30
2023-03-31T00:26:09.095Z,5.45
2023-03-31T00:28:36.050Z,6.97
2023-03-31T00:31:03.874Z,5.90
2023-03-31T00:33:30.746Z,6.43
2023-03-31T00:36:01.935Z,7.47
2023-03-31T00:38:30.208Z,7.15
2023-03-31T00:40:57.202Z,5.97
2023-03-31T00:43:36.010Z,5.85
2023-03-31T00:46:18.788Z,7.47
2023-03-31T00:48:58.698Z,7.80
2023-03-31T00:51:29.676Z,6.82
2023-03-31T00:54:02.112Z,5.22
2023-03-31T00:56:34.754Z,7.88
2023-03-31T00:59:04.863Z,7.28
2023-03-31T01:01:31.857Z,5.28
2023-03-31T01:03:59.381Z,5.90
2023-03-31T01:06:30.797Z,7.10
2023-03-31T01:08:58.047Z,4.72
2023-03-31T01:11:27.492Z,5.88
2023-03-31T01:13:56.660Z,6.53
2023-03-31T01:16:23.561Z,5.43
2023-03-31T01:18:50.806Z,7.72
2023-03-31T01:21:56.990Z,7.07
2023-03-31T01:24:52.848Z,8.32
2023-03-31T01:28:11.173Z,5.32
2023-03-31T01:30:52.936Z,6.35
2023-03-31T01:33:34.813Z,7.00
2023-03-31T01:36:29.399Z,6.05
2023-03-31T01:39:32.933Z,5.57
2023-03-31T01:42:14.850Z,6.63
2023-03-31T01:44:47.712Z,5.82
2023-03-31T01:47:23.275Z,6.72
2023-03-31T01:50:02.926Z,6.07
2023-03-31T01:52:45.320Z,5.97
2023-03-31T01:55:24.332Z,6.32
2023-03-31T01:57:57.657Z,6.43
2023-03-31T02:00:34.737Z,7.78
2023-03-31T02:03:12.949Z,6.00
2023-03-31T02:05:54.995Z,7.05
2023-03-31T02:08:30.264Z,6.97
2023-03-31T02:10:59.715Z,5.90
2023-03-31T02:13:29.324Z,7.35
2023-03-31T02:16:01.499Z,7.50
2023-03-31T02:18:33.341Z,6.95
2023-03-31T02:21:01.166Z,8.18
2023-03-31T02:23:31.892Z,6.65
2023-03-31T02:26:13.763Z,6.53
2023-03-31T02:28:41.149Z,5.10
2023-03-31T02:31:18.251Z,7.45
2023-03-31T02:33:45.214Z,6.00
2023-03-31T02:36:12.064Z,5.53
2023-03-31T02:38:47.776Z,5.65
2023-03-31T02:41:14.754Z,8.80
2023-03-31T02:43:41.632Z,6.00
2023-03-31T02:46:09.013Z,6.70
2023-03-31T02:48:38.475Z,6.28
2023-03-31T02:51:33.489Z,6.72
2023-03-31T02:54:41.740Z,7.22
2023-03-31T02:57:33.050Z,6.07
2023-03-31T03:00:41.230Z,7.03
2023-03-31T03:03:14.522Z,6.53
2023-03-31T03:06:03.852Z,5.93
2023-03-31T03:09:29.950Z,8.15
2023-03-31T03:12:15.714Z,5.78
2023-03-31T03:14:52.411Z,5.00
2023-03-31T03:17:43.731Z,7.05
2023-03-31T03:20:12.069Z,8.60
2023-03-31T03:22:40.575Z,8.57
2023-03-31T03:25:10.577Z,8.60
2023-03-31T03:30:07.785Z,6.65
2023-03-31T03:32:35.635Z,5.97
2023-03-31T03:35:03.724Z,8.00
2023-03-31T03:37:31.658Z,6.57
2023-03-31T03:39:58.802Z,6.07
2023-03-31T03:42:25.599Z,5.53
2023-03-31T03:44:52.352Z,5.95
2023-03-31T03:47:19.169Z,6.55
2023-03-31T03:49:45.954Z,8.98
2023-03-31T03:52:12.814Z,5.90
2023-03-31T03:54:39.631Z,6.38
2023-03-31T03:57:07.316Z,5.63
2023-03-31T03:59:34.214Z,8.25
2023-03-31T04:02:01.173Z,9.18
2023-03-31T04:04:28.229Z,7.38
2023-03-31T04:06:55.134Z,6.05
2023-03-31T04:09:22.004Z,8.50
2023-03-31T04:11:48.786Z,7.15
2023-03-31T04:14:15.557Z,7.63
2023-03-31T04:16:42.791Z,5.50
2023-03-31T04:19:12.997Z,5.28
2023-03-31T04:21:45.413Z,6.95
2023-03-31T04:26:50.643Z,6.28
2023-03-31T04:29:19.837Z,6.65
2023-03-31T04:31:47.110Z,7.32
2023-03-31T04:34:15.489Z,7.13
2023-03-31T04:36:52.244Z,7.40
2023-03-31T04:39:30.606Z,7.97
2023-03-31T04:41:58.630Z,8.48
2023-03-31T04:44:25.977Z,6.03
2023-03-31T04:46:53.348Z,5.75
2023-03-31T04:49:20.410Z,7.47
2023-03-31T04:51:47.407Z,11.90
2023-03-31T04:54:14.388Z,6.80
2023-03-31T04:56:41.149Z,9.30
2023-03-31T04:59:08.512Z,8.02
2023-03-31T05:01:36.622Z,7.47
2023-03-31T05:04:06.943Z,7.90
2023-03-31T05:06:34.137Z,7.60
2023-03-31T05:09:00.951Z,7.22
2023-03-31T05:11:28.946Z,7.03
2023-03-31T05:13:55.889Z,9.07
2023-03-31T05:16:22.760Z,7.28
2023-03-31T05:18:49.546Z,8.25
2023-03-31T05:21:19.185Z,6.80
2023-03-31T05:23:46.576Z,8.65
2023-03-31T05:26:14.372Z,10.18
2023-03-31T05:28:41.888Z,11.50
2023-03-31T05:31:11.260Z,8.52
2023-03-31T05:33:41.312Z,7.18
2023-03-31T05:36:10.705Z,10.57
2023-03-31T05:38:37.996Z,10.63
2023-03-31T05:41:04.798Z,7.53
2023-03-31T05:43:31.781Z,9.45
2023-03-31T05:45:58.670Z,7.90
2023-03-31T05:48:25.620Z,9.40
2023-03-31T05:50:55.998Z,8.65
2023-03-31T05:53:22.775Z,7.22
2023-03-31T05:55:49.542Z,9.07
2023-03-31T05:58:16.416Z,8.55
2023-03-31T06:00:44.603Z,11.00
2023-03-31T06:03:11.646Z,9.20
2023-03-31T06:05:39.354Z,8.38
2023-03-31T06:08:07.558Z,9.25
2023-03-31T06:10:35.964Z,5.63
2023-03-31T06:13:02.976Z,5.80
2023-03-31T06:15:29.904Z,3.60
2023-03-31T06:17:56.728Z,3.97
2023-03-31T06:20:28.151Z,3.42
2023-03-31T06:22:55.487Z,4.95
2023-03-31T06:25:22.320Z,3.47
2023-03-31T06:27:49.137Z,3.65
2023-03-31T06:30:16.042Z,3.72
2023-03-31T06:32:42.859Z,3.95
2023-03-31T06:35:09.965Z,5.05
2023-03-31T06:37:36.722Z,3.80
2023-03-31T06:40:04.566Z,4.75
2023-03-31T06:42:31.603Z,4.28
2023-03-31T06:44:58.449Z,4.15
2023-03-31T06:47:25.453Z,3.25
2023-03-31T06:49:52.475Z,6.72
2023-03-31T06:52:19.354Z,4.20
2023-03-31T06:54:46.295Z,3.25
2023-03-31T06:57:13.259Z,5.00
2023-03-31T06:59:40.044Z,4.15
2023-03-31T07:02:07.110Z,3.60
2023-03-31T07:04:34.017Z,4.47
2023-03-31T07:07:00.814Z,3.80
2023-03-31T07:09:27.608Z,4.50
2023-03-31T07:11:56.894Z,5.00
2023-03-31T07:14:24.054Z,4.07
2023-03-31T07:16:54.515Z,3.80
2023-03-31T07:19:21.585Z,5.20
2023-03-31T07:21:48.489Z,4.10
2023-03-31T07:24:15.353Z,3.60
2023-03-31T07:26:42.179Z,5.28
2023-03-31T07:29:09.439Z,3.15
2023-03-31T07:31:36.290Z,4.47
2023-03-31T07:34:03.710Z,2.58
2023-03-31T07:36:31.255Z,3.92
2023-03-31T07:38:58.349Z,4.97
2023-03-31T07:41:26.119Z,3.75
2023-03-31T07:43:53.055Z,2.03
2023-03-31T07:46:25.459Z,2.00
2023-03-31T07:48:53.388Z,2.55
2023-03-31T07:51:22.784Z,1.50
2023-03-31T07:53:52.175Z,1.92
2023-03-31T07:56:21.738Z,1.45
2023-03-31T07:58:49.023Z,4.20
2023-03-31T08:01:17.412Z,2.28
2023-03-31T08:03:48.673Z,3.58
2023-03-31T08:06:19.926Z,1.67
2023-03-31T08:08:47.376Z,3.67
2023-03-31T08:11:14.219Z,2.45
2023-03-31T08:13:41.089Z,2.45
2023-03-31T08:16:08.412Z,2.25
2023-03-31T08:18:35.675Z,1.80
2023-03-31T08:21:02.419Z,2.30
2023-03-31T08:23:29.247Z,2.13
2023-03-31T08:26:07.367Z,2.33
2023-03-31T08:28:34.712Z,3.22
2023-03-31T08:31:06.667Z,3.05
2023-03-31T08:33:33.807Z,3.70
2023-03-31T08:36:07.998Z,4.55
2023-03-31T08:38:37.728Z,2.42
2023-03-31T08:41:07.418Z,2.78
2023-03-31T08:43:40.796Z,2.72
2023-03-31T08:46:15.839Z,4.82
2023-03-31T08:48:48.951Z,4.70
2023-03-31T08:51:36.443Z,6.20
2023-03-31T08:54:08.051Z,5.50
2023-03-31T08:56:40.118Z,5.05
2023-03-31T08:59:31.887Z,6.30
2023-03-31T09:02:25.214Z,5.70
2023-03-31T09:05:19.373Z,6.97
2023-03-31T09:08:05.935Z,5.80
2023-03-31T09:10:41.978Z,6.28
2023-03-31T09:13:30.184Z,6.97
2023-03-31T09:16:05.142Z,5.13
2023-03-31T09:18:37.903Z,5.38
2023-03-31T09:21:04.980Z,4.53
2023-03-31T09:23:52.346Z,4.97
2023-03-31T09:26:29.299Z,4.60
2023-03-31T09:28:59.422Z,5.68
2023-03-31T09:31:27.238Z,4.20
2023-03-31T09:34:01.366Z,6.00
2023-03-31T09:36:28.805Z,4.97
2023-03-31T09:38:55.736Z,4.82
2023-03-31T09:41:22.634Z,3.85
2023-03-31T09:43:51.345Z,4.88
2023-03-31T09:46:26.529Z,5.28
2023-03-31T09:49:06.711Z,5.75
2023-03-31T09:51:37.935Z,5.55
2023-03-31T09:54:14.703Z,3.80
2023-03-31T09:56:49.127Z,5.35
2023-03-31T09:59:34.408Z,4.82
2023-03-31T10:02:16.549Z,4.68
2023-03-31T10:04:46.763Z,4.95
2023-03-31T10:07:20.819Z,8.48
2023-03-31T10:09:47.825Z,6.65
2023-03-31T10:12:24.237Z,4.70
2023-03-31T10:14:53.198Z,8.05
2023-03-31T10:17:24.862Z,5.27
2023-03-31T10:19:58.831Z,10.23
2023-03-31T10:22:31.523Z,6.50
2023-03-31T10:25:20.550Z,5.00
2023-03-31T10:27:51.688Z,6.30
2023-03-31T10:30:23.217Z,6.13
2023-03-31T10:32:52.628Z,5.45
2023-03-31T10:35:33.546Z,6.78
2023-03-31T10:38:07.874Z,5.13
2023-03-31T10:40:36.492Z,6.50
2023-03-31T10:43:18.341Z,5.05
2023-03-31T10:45:49.488Z,2.40
2023-03-31T10:48:27.473Z,3.40
2023-03-31T10:50:58.826Z,1.50
2023-03-31T10:53:25.640Z,1.08
2023-03-31T10:56:00.515Z,1.00
2023-03-31T10:59:04.504Z,1.08
2023-03-31T11:02:10.750Z,1.38
2023-03-31T11:05:15.315Z,0.75
2023-03-31T11:08:20.140Z,0.80
2023-03-31T11:11:14.994Z,2.00
2023-03-31T11:13:56.342Z,1.52
2023-03-31T11:16:55.743Z,1.05
2023-03-31T11:19:25.504Z,0.90
2023-03-31T11:22:09.908Z,1.05
2023-03-31T11:24:48.765Z,1.27
2023-03-31T11:27:41.559Z,2.08
2023-03-31T11:30:14.830Z,1.02
2023-03-31T11:32:54.071Z,3.45
2023-03-31T11:35:54.396Z,1.67
2023-03-31T11:38:36.585Z,1.65
2023-03-31T11:41:15.629Z,1.92
2023-03-31T11:43:55.591Z,3.07
2023-03-31T11:49:02.806Z,2.78
2023-03-31T11:51:36.256Z,2.00
2023-03-31T11:54:12.035Z,2.85
2023-03-31T11:56:41.220Z,1.25
2023-03-31T11:59:14.246Z,3.43
2023-03-31T12:01:57.791Z,2.00
2023-03-31T12:04:42.452Z,2.67
2023-03-31T12:07:29.543Z,2.78
2023-03-31T12:10:12.721Z,3.38
2023-03-31T12:12:44.721Z,0.95
2023-03-31T12:15:14.536Z,1.70
2023-03-31T12:17:46.488Z,2.33
2023-03-31T12:20:34.355Z,2.90
2023-03-31T12:23:03.662Z,2.97
2023-03-31T12:26:04.433Z,4.32
2023-03-31T12:28:33.712Z,4.10
2023-03-31T12:31:03.164Z,5.30
2023-03-31T12:33:39.597Z,6.10
2023-03-31T12:36:09.635Z,4.05
2023-03-31T12:38:49.039Z,3.28
2023-03-31T12:41:28.847Z,3.53
2023-03-31T12:44:23.600Z,2.75
2023-03-31T12:47:02.403Z,3.78
2023-03-31T12:49:47.818Z,3.80
2023-03-31T12:52:36.128Z,2.40
2023-03-31T12:55:22.487Z,4.47
2023-03-31T12:57:49.311Z,5.10
2023-03-31T13:00:24.085Z,2.83
2023-03-31T13:03:14.728Z,3.28
2023-03-31T13:05:47.314Z,3.38
2023-03-31T13:09:08.714Z,6.05
2023-03-31T13:12:07.682Z,3.50
2023-03-31T13:14:40.256Z,3.53
2023-03-31T13:17:27.871Z,7.03
2023-03-31T13:19:56.782Z,5.78
2023-03-31T13:22:37.818Z,7.65
2023-03-31T13:25:32.915Z,6.60
2023-03-31T13:28:24.027Z,4.57
2023-03-31T13:30:58.285Z,4.05
2023-03-31T13:33:39.692Z,6.68
2023-03-31T13:36:36.182Z,4.78
2023-03-31T13:39:17.667Z,3.47
2023-03-31T13:42:09.042Z,2.92
2023-03-31T13:45:01.238Z,2.90
2023-03-31T13:47:50.743Z,4.28
2023-03-31T13:50:32.698Z,3.25
2023-03-31T13:53:21.406Z,2.13
2023-03-31T13:55:51.376Z,2.92
2023-03-31T13:58:34.142Z,1.95
2023-03-31T14:01:08.211Z,2.50
2023-03-31T14:04:04.801Z,3.13
2023-03-31T14:06:48.819Z,3.50
2023-03-31T14:09:34.528Z,3.15
2023-03-31T14:12:18.501Z,0.73
2023-03-31T14:14:45.294Z,1.20
2023-03-31T14:17:13.068Z,2.08
2023-03-31T14:19:39.844Z,2.42
2023-03-31T14:22:43.043Z,2.70
2023-03-31T14:25:38.189Z,2.25
2023-03-31T14:28:34.504Z,1.85
2023-03-31T14:31:05.051Z,1.98
2023-03-31T14:33:50.869Z,1.33
2023-03-31T14:36:39.647Z,3.15
2023-03-31T14:39:10.856Z,1.92
2023-03-31T14:41:38.070Z,2.42
2023-03-31T14:44:12.524Z,4.13
2023-03-31T14:46:39.501Z,3.60
2023-03-31T14:49:18.393Z,3.33
2023-03-31T14:51:45.717Z,3.88
2023-03-31T14:54:18.495Z,3.15
2023-03-31T14:56:52.340Z,1.38
2023-03-31T14:59:24.999Z,3.00
2023-03-31T15:01:52.379Z,2.65
2023-03-31T15:04:28.831Z,1.50
2023-03-31T15:07:04.988Z,2.38
2023-03-31T15:09:35.543Z,2.75
2023-03-31T15:12:06.982Z,3.58
2023-03-31T15:14:50.032Z,2.75
2023-03-31T15:17:21.787Z,4.00
2023-03-31T15:19:57.253Z,2.50
2023-03-31T15:22:26.324Z,2.50
2023-03-31T15:24:54.099Z,2.80
2023-03-31T15:27:38.181Z,2.55
2023-03-31T15:30:14.707Z,3.58
2023-03-31T15:32:58.981Z,5.70
2023-03-31T15:35:34.081Z,3.95
2023-03-31T15:38:04.274Z,3.80
2023-03-31T15:40:40.863Z,2.20
2023-03-31T15:43:30.162Z,3.50
2023-03-31T15:46:01.450Z,3.38
2023-03-31T15:48:36.720Z,2.78
2023-03-31T15:51:41.142Z,2.30
2023-03-31T15:54:33.523Z,4.45
2023-03-31T15:57:02.060Z,2.10
2023-03-31T15:59:41.532Z,5.45
2023-03-31T16:02:28.706Z,4.30
2023-03-31T16:04:58.601Z,4.40
2023-03-31T16:10:04.069Z,3.25
2023-03-31T16:12:43.024Z,5.20
2023-03-31T16:15:14.359Z,2.72
2023-03-31T16:22:02.198Z,2.38
2023-03-31T16:24:36.053Z,1.73
2023-03-31T16:27:06.881Z,1.77
2023-03-31T16:29:37.240Z,3.03
2023-03-31T16:32:11.532Z,2.97
2023-03-31T16:34:54.501Z,3.83
2023-03-31T16:37:22.810Z,3.25
2023-03-31T16:39:49.876Z,3.17
2023-03-31T16:42:17.091Z,2.13
2023-03-31T16:44:49.956Z,1.60
2023-03-31T16:47:34.743Z,4.17
2023-03-31T16:50:07.344Z,2.83
2023-03-31T16:52:35.960Z,2.55
2023-03-31T16:55:03.034Z,4.78
2023-03-31T16:57:29.954Z,2.80
2023-03-31T16:59:58.860Z,4.38
2023-03-31T17:02:26.301Z,4.28
2023-03-31T17:04:59.463Z,5.15
2023-03-31T17:07:36.235Z,3.53
2023-03-31T17:12:30.306Z,3.45
2023-03-31T17:14:57.162Z,3.08
2023-03-31T17:17:24.392Z,7.40
2023-03-31T17:19:52.948Z,5.45
2023-03-31T17:22:21.399Z,4.45
2023-03-31T17:24:49.794Z,5.28
2023-03-31T17:27:17.064Z,2.15
2023-03-31T17:29:43.962Z,4.28
2023-03-31T17:32:13.874Z,1.98
2023-03-31T17:34:41.598Z,5.13
2023-03-31T17:37:08.752Z,2.97
2023-03-31T17:39:36.012Z,3.03
2023-03-31T17:42:04.378Z,3.17
2023-03-31T17:44:31.563Z,2.92
2023-03-31T17:46:58.576Z,1.48
2023-03-31T17:49:27.224Z,2.00
2023-03-31T17:51:54.417Z,1.75
2023-03-31T17:54:21.515Z,2.05
2023-03-31T17:56:51.132Z,1.23
2023-03-31T17:59:19.422Z,3.00
2023-03-31T18:01:47.094Z,4.15
2023-03-31T18:04:14.709Z,2.72
2023-03-31T18:06:41.941Z,6.03
2023-03-31T18:09:09.482Z,7.00
2023-03-31T18:11:37.705Z,3.55
2023-03-31T18:14:05.045Z,3.35
2023-03-31T18:16:32.520Z,3.50
2023-03-31T18:18:59.526Z,5.20
2023-03-31T18:21:27.172Z,4.45
2023-03-31T18:23:55.156Z,4.57
2023-03-31T18:26:24.356Z,5.32
2023-03-31T18:28:51.509Z,2.33
2023-03-31T18:31:18.567Z,5.70
2023-03-31T18:33:45.896Z,5.00
2023-03-31T18:36:20.774Z,5.80
2023-03-31T18:38:49.661Z,4.78
2023-03-31T18:41:17.835Z,5.07
2023-03-31T18:43:47.662Z,2.83
2023-03-31T18:46:15.013Z,4.15
2023-03-31T18:48:42.620Z,2.58
2023-03-31T18:51:09.596Z,2.55
2023-03-31T18:53:36.917Z,2.92
2023-03-31T18:56:04.819Z,4.22
2023-03-31T18:58:34.134Z,3.40
2023-03-31T19:01:03.785Z,2.53
2023-03-31T19:03:30.985Z,4.45
2023-03-31T19:06:06.731Z,3.65
2023-03-31T19:08:33.688Z,2.63
2023-03-31T19:11:12.945Z,3.58
2023-03-31T19:13:42.849Z,6.13
2023-03-31T19:16:12.146Z,5.43
2023-03-31T19:18:39.581Z,2.72
2023-03-31T19:21:07.116Z,2.03
2023-03-31T19:23:34.396Z,5.00
2023-03-31T19:26:02.579Z,1.85
2023-03-31T19:28:30.588Z,3.20
2023-03-31T19:30:58.727Z,3.45
2023-03-31T19:33:26.673Z,3.38
2023-03-31T19:35:54.008Z,3.72
2023-03-31T19:38:27.247Z,3.08
2023-03-31T19:40:54.353Z,5.95
2023-03-31T19:43:29.275Z,2.25
2023-03-31T19:45:58.032Z,5.50
2023-03-31T19:48:25.608Z,4.85
2023-03-31T19:50:54.731Z,5.28
2023-03-31T19:53:26.641Z,6.53
2023-03-31T19:56:09.875Z,3.92
2023-03-31T19:58:38.119Z,3.58
2023-03-31T20:01:13.946Z,6.15
2023-03-31T20:03:41.074Z,10.13
2023-03-31T20:06:11.400Z,6.45
2023-03-31T20:08:41.721Z,3.45
2023-03-31T20:11:12.103Z,4.82
2023-03-31T20:13:40.012Z,5.13
2023-03-31T20:16:13.651Z,3.35
2023-03-31T20:18:40.910Z,4.82
2023-03-31T20:21:11.370Z,3.83
2023-03-31T20:23:39.908Z,4.68
2023-03-31T20:26:10.322Z,3.85
2023-03-31T20:28:38.021Z,4.20
2023-03-31T20:31:19.982Z,8.23
2023-03-31T20:33:47.275Z,4.50
2023-03-31T20:36:17.189Z,4.05
2023-03-31T20:38:46.351Z,3.33
2023-03-31T20:41:14.515Z,5.53
2023-03-31T20:43:41.521Z,3.67
2023-03-31T20:46:09.662Z,5.07
2023-03-31T20:48:40.439Z,4.05
2023-03-31T20:51:14.744Z,4.95
2023-03-31T20:53:47.649Z,3.67
2023-03-31T20:56:18.814Z,4.63
2023-03-31T20:58:47.601Z,4.65
2023-03-31T21:01:15.061Z,4.63
2023-03-31T21:03:42.812Z,6.43
2023-03-31T21:06:13.759Z,4.40
2023-03-31T21:08:47.907Z,4.75
2023-03-31T21:11:15.158Z,2.35
2023-03-31T21:13:42.278Z,5.53
2023-03-31T21:16:09.289Z,3.13
2023-03-31T21:18:38.858Z,5.80
2023-03-31T21:21:12.308Z,3.05
2023-03-31T21:23:40.122Z,4.47
2023-03-31T21:26:08.968Z,3.38
2023-03-31T21:28:40.686Z,3.55
2023-03-31T21:31:14.519Z,2.78
2023-03-31T21:33:43.878Z,5.93
2023-03-31T21:36:18.815Z,4.30
2023-03-31T21:38:46.315Z,3.45
2023-03-31T21:41:18.972Z,3.83
2023-03-31T21:43:46.452Z,3.85
2023-03-31T21:46:21.711Z,4.07
2023-03-31T21:48:49.796Z,5.78
2023-03-31T21:51:19.250Z,3.95
2023-03-31T21:53:46.218Z,2.67
2023-03-31T21:56:13.223Z,5.93
2023-03-31T21:58:40.645Z,6.57
2023-03-31T22:01:08.637Z,5.40
2023-03-31T22:03:38.346Z,6.85
2023-03-31T22:06:07.317Z,5.88
2023-03-31T22:08:36.700Z,6.38
2023-03-31T22:11:07.102Z,3.78
2023-03-31T22:13:34.812Z,2.17
2023-03-31T22:16:02.173Z,7.03
2023-03-31T22:18:30.631Z,3.80
2023-03-31T22:20:58.515Z,5.70
2023-03-31T22:23:27.519Z,6.10
2023-03-31T22:25:54.849Z,6.65
2023-03-31T22:28:21.782Z,3.38
2023-03-31T22:30:48.694Z,3.78
2023-03-31T22:33:15.665Z,4.63
2023-03-31T22:35:42.743Z,4.50
2023-03-31T22:38:13.997Z,10.40
2023-03-31T22:40:43.842Z,6.20
2023-03-31T22:43:11.042Z,2.90
2023-03-31T22:45:38.798Z,4.38
2023-03-31T22:48:07.769Z,3.10
2023-03-31T22:50:34.626Z,5.57
2023-03-31T22:53:01.837Z,2.78
2023-03-31T22:55:29.638Z,4.07
2023-03-31T22:57:57.260Z,5.05
2023-03-31T23:00:24.386Z,6.13
2023-03-31T23:02:52.247Z,4.15
2023-03-31T23:05:19.388Z,4.40
2023-03-31T23:07:46.870Z,2.63
2023-03-31T23:10:13.787Z,4.53
2023-03-31T23:12:40.833Z,1.90
2023-03-31T23:15:08.472Z,3.28
2023-03-31T23:17:36.216Z,3.92
2023-03-31T23:20:04.093Z,4.85
2023-03-31T23:22:31.037Z,2.58
2023-03-31T23:24:58.190Z,3.92
2023-03-31T23:27:25.528Z,2.67
2023-03-31T23:29:52.479Z,3.33
2023-03-31T23:32:19.454Z,2.65
2023-03-31T23:34:46.725Z,3.38
2023-03-31T23:37:14.726Z,1.20
2023-03-31T23:39:44.219Z,2.60
2023-03-31T23:42:16.180Z,1.88
2023-03-31T23:44:43.244Z,2.78
2023-03-31T23:47:10.165Z,1.88
2023-03-31T23:49:37.233Z,1.58
2023-03-31T23:52:04.785Z,1.67
2023-03-31T23:54:31.747Z,1.45
2023-03-31T23:56:58.748Z,1.00
2023-03-31T23:59:25.916Z,0.40
